sensor_id;sensor_type;location;lat;lon;timestamp;temperature;humidity
51035;DHT22;37062;52.546;13.230;2023-05-07T00:01:49;10.60;99.90
51035;DHT22;37062;52.546;13.230;2023-05-07T00:04:17;10.40;99.90
51035;DHT22;37062;52.546;13.230;2023-05-07T00:06:46;10.40;99.90
51035;DHT22;37062;52.546;13.230;2023-05-07T00:09:14;10.40;99.90
51035;DHT22;37062;52.546;13.230;2023-05-07T00:11:43;10.40;99.90
51035;DHT22;37062;52.546;13.230;2023-05-07T00:14:11;10.40;99.90
51035;DHT22;37062;52.546;13.230;2023-05-07T00:16:41;10.50;99.90
51035;DHT22;37062;52.546;13.230;2023-05-07T00:19:09;10.50;99.90
51035;DHT22;37062;52.546;13.230;2023-05-07T00:21:37;10.50;99.90
51035;DHT22;37062;52.546;13.230;2023-05-07T00:24:06;10.50;99.90
51035;DHT22;37062;52.546;13.230;2023-05-07T00:26:34;10.60;99.90
51035;DHT22;37062;52.546;13.230;2023-05-07T00:29:02;10.60;99.90
51035;DHT22;37062;52.546;13.230;2023-05-07T00:31:31;10.60;99.90
51035;DHT22;37062;52.546;13.230;2023-05-07T00:34:00;10.50;99.90
51035;DHT22;37062;52.546;13.230;2023-05-07T00:36:28;10.60;99.90
51035;DHT22;37062;52.546;13.230;2023-05-07T00:38:58;10.40;99.90
51035;DHT22;37062;52.546;13.230;2023-05-07T00:41:27;10.40;99.90
51035;DHT22;37062;52.546;13.230;2023-05-07T00:43:55;10.40;99.90
51035;DHT22;37062;52.546;13.230;2023-05-07T00:46:23;10.40;99.90
51035;DHT22;37062;52.546;13.230;2023-05-07T00:48:53;10.40;99.90
51035;DHT22;37062;52.546;13.230;2023-05-07T00:51:23;10.50;99.90
51035;DHT22;37062;52.546;13.230;2023-05-07T00:53:54;10.60;99.90
51035;DHT22;37062;52.546;13.230;2023-05-07T00:56:23;10.70;99.90
51035;DHT22;37062;52.546;13.230;2023-05-07T00:58:52;10.80;99.90
51035;DHT22;37062;52.546;13.230;2023-05-07T01:01:21;10.80;99.90
51035;DHT22;37062;52.546;13.230;2023-05-07T01:03:49;10.90;99.90
51035;DHT22;37062;52.546;13.230;2023-05-07T01:06:18;10.80;99.90
51035;DHT22;37062;52.546;13.230;2023-05-07T01:08:50;10.80;99.90
51035;DHT22;37062;52.546;13.230;2023-05-07T01:11:19;10.90;99.90
51035;DHT22;37062;52.546;13.230;2023-05-07T01:13:50;10.80;99.90
51035;DHT22;37062;52.546;13.230;2023-05-07T01:16:18;10.80;99.90
51035;DHT22;37062;52.546;13.230;2023-05-07T01:18:47;10.80;99.90
51035;DHT22;37062;52.546;13.230;2023-05-07T01:21:17;10.80;99.90
51035;DHT22;37062;52.546;13.230;2023-05-07T01:23:47;10.80;99.90
51035;DHT22;37062;52.546;13.230;2023-05-07T01:26:16;10.90;99.90
51035;DHT22;37062;52.546;13.230;2023-05-07T01:28:46;10.80;99.90
51035;DHT22;37062;52.546;13.230;2023-05-07T01:31:15;10.80;99.90
51035;DHT22;37062;52.546;13.230;2023-05-07T01:33:46;10.70;99.90
51035;DHT22;37062;52.546;13.230;2023-05-07T01:36:17;10.50;99.90
51035;DHT22;37062;52.546;13.230;2023-05-07T01:38:48;10.40;99.90
51035;DHT22;37062;52.546;13.230;2023-05-07T01:41:17;10.40;99.90
51035;DHT22;37062;52.546;13.230;2023-05-07T01:43:46;10.30;99.90
51035;DHT22;37062;52.546;13.230;2023-05-07T01:46:15;10.30;99.90
51035;DHT22;37062;52.546;13.230;2023-05-07T01:48:45;10.30;99.90
51035;DHT22;37062;52.546;13.230;2023-05-07T01:51:13;10.40;99.90
51035;DHT22;37062;52.546;13.230;2023-05-07T01:53:42;10.40;99.90
51035;DHT22;37062;52.546;13.230;2023-05-07T01:56:13;10.40;99.90
51035;DHT22;37062;52.546;13.230;2023-05-07T01:58:42;10.50;99.90
51035;DHT22;37062;52.546;13.230;2023-05-07T02:01:10;10.50;99.90
51035;DHT22;37062;52.546;13.230;2023-05-07T02:03:39;10.50;99.90
51035;DHT22;37062;52.546;13.230;2023-05-07T02:06:16;10.40;99.90
51035;DHT22;37062;52.546;13.230;2023-05-07T02:08:44;10.40;99.90
51035;DHT22;37062;52.546;13.230;2023-05-07T02:11:15;10.40;99.90
51035;DHT22;37062;52.546;13.230;2023-05-07T02:13:44;10.30;99.90
51035;DHT22;37062;52.546;13.230;2023-05-07T02:16:12;10.30;99.90
51035;DHT22;37062;52.546;13.230;2023-05-07T02:18:41;10.30;99.90
51035;DHT22;37062;52.546;13.230;2023-05-07T02:21:09;10.20;99.90
51035;DHT22;37062;52.546;13.230;2023-05-07T02:23:37;10.30;99.90
51035;DHT22;37062;52.546;13.230;2023-05-07T02:26:06;10.40;99.90
51035;DHT22;37062;52.546;13.230;2023-05-07T02:28:36;10.40;99.90
51035;DHT22;37062;52.546;13.230;2023-05-07T02:31:05;10.50;99.90
51035;DHT22;37062;52.546;13.230;2023-05-07T02:33:34;10.50;99.90
51035;DHT22;37062;52.546;13.230;2023-05-07T02:36:07;10.40;99.90
51035;DHT22;37062;52.546;13.230;2023-05-07T02:38:40;10.40;99.90
51035;DHT22;37062;52.546;13.230;2023-05-07T02:41:08;10.40;99.90
51035;DHT22;37062;52.546;13.230;2023-05-07T02:43:38;10.40;99.90
51035;DHT22;37062;52.546;13.230;2023-05-07T02:46:08;10.30;99.90
51035;DHT22;37062;52.546;13.230;2023-05-07T02:48:40;10.40;99.90
51035;DHT22;37062;52.546;13.230;2023-05-07T02:51:08;10.40;99.90
51035;DHT22;37062;52.546;13.230;2023-05-07T02:53:39;10.50;99.90
51035;DHT22;37062;52.546;13.230;2023-05-07T02:56:07;10.60;99.90
51035;DHT22;37062;52.546;13.230;2023-05-07T02:58:35;10.50;99.90
51035;DHT22;37062;52.546;13.230;2023-05-07T03:01:08;10.40;99.90
51035;DHT22;37062;52.546;13.230;2023-05-07T03:03:47;10.40;99.90
51035;DHT22;37062;52.546;13.230;2023-05-07T03:06:15;10.40;99.90
51035;DHT22;37062;52.546;13.230;2023-05-07T03:08:43;10.30;99.90
51035;DHT22;37062;52.546;13.230;2023-05-07T03:11:12;10.30;99.90
51035;DHT22;37062;52.546;13.230;2023-05-07T03:13:41;10.30;99.90
51035;DHT22;37062;52.546;13.230;2023-05-07T03:16:10;10.40;99.90
51035;DHT22;37062;52.546;13.230;2023-05-07T03:18:38;10.30;99.90
51035;DHT22;37062;52.546;13.230;2023-05-07T03:21:07;10.30;99.90
51035;DHT22;37062;52.546;13.230;2023-05-07T03:23:35;10.20;99.90
51035;DHT22;37062;52.546;13.230;2023-05-07T03:26:03;10.30;99.90
51035;DHT22;37062;52.546;13.230;2023-05-07T03:28:32;10.30;99.90
51035;DHT22;37062;52.546;13.230;2023-05-07T03:31:03;10.30;99.90
51035;DHT22;37062;52.546;13.230;2023-05-07T03:33:34;10.30;99.90
51035;DHT22;37062;52.546;13.230;2023-05-07T03:36:03;10.30;99.90
51035;DHT22;37062;52.546;13.230;2023-05-07T03:38:32;10.40;99.90
51035;DHT22;37062;52.546;13.230;2023-05-07T03:41:00;10.40;99.90
51035;DHT22;37062;52.546;13.230;2023-05-07T03:43:30;10.40;99.90
51035;DHT22;37062;52.546;13.230;2023-05-07T03:46:04;10.40;99.90
51035;DHT22;37062;52.546;13.230;2023-05-07T03:48:34;10.50;99.90
51035;DHT22;37062;52.546;13.230;2023-05-07T03:51:02;10.30;99.90
51035;DHT22;37062;52.546;13.230;2023-05-07T03:53:32;10.20;99.90
51035;DHT22;37062;52.546;13.230;2023-05-07T03:56:01;10.10;99.90
51035;DHT22;37062;52.546;13.230;2023-05-07T03:58:33;10.20;99.90
51035;DHT22;37062;52.546;13.230;2023-05-07T04:01:06;10.10;99.90
51035;DHT22;37062;52.546;13.230;2023-05-07T04:03:36;10.20;99.90
51035;DHT22;37062;52.546;13.230;2023-05-07T04:06:04;10.20;99.90
51035;DHT22;37062;52.546;13.230;2023-05-07T04:08:34;10.20;99.90
51035;DHT22;37062;52.546;13.230;2023-05-07T04:11:04;10.20;99.90
51035;DHT22;37062;52.546;13.230;2023-05-07T04:13:34;10.10;99.90
51035;DHT22;37062;52.546;13.230;2023-05-07T04:16:05;10.20;99.90
51035;DHT22;37062;52.546;13.230;2023-05-07T04:18:37;10.20;99.90
51035;DHT22;37062;52.546;13.230;2023-05-07T04:21:05;10.30;99.90
51035;DHT22;37062;52.546;13.230;2023-05-07T04:23:36;10.30;99.90
51035;DHT22;37062;52.546;13.230;2023-05-07T04:26:08;10.30;99.90
51035;DHT22;37062;52.546;13.230;2023-05-07T04:28:40;10.20;99.90
51035;DHT22;37062;52.546;13.230;2023-05-07T04:31:09;10.20;99.90
51035;DHT22;37062;52.546;13.230;2023-05-07T04:33:39;10.30;99.90
51035;DHT22;37062;52.546;13.230;2023-05-07T04:36:11;10.20;99.90
51035;DHT22;37062;52.546;13.230;2023-05-07T04:38:47;10.30;99.90
51035;DHT22;37062;52.546;13.230;2023-05-07T04:41:17;10.30;99.90
51035;DHT22;37062;52.546;13.230;2023-05-07T04:43:45;10.20;99.90
51035;DHT22;37062;52.546;13.230;2023-05-07T04:46:15;10.20;99.90
51035;DHT22;37062;52.546;13.230;2023-05-07T04:48:45;10.00;99.90
51035;DHT22;37062;52.546;13.230;2023-05-07T04:51:14;10.00;99.90
51035;DHT22;37062;52.546;13.230;2023-05-07T04:53:42;10.00;99.90
51035;DHT22;37062;52.546;13.230;2023-05-07T04:56:10;10.00;99.90
51035;DHT22;37062;52.546;13.230;2023-05-07T04:58:41;10.10;99.90
51035;DHT22;37062;52.546;13.230;2023-05-07T05:01:10;10.00;99.90
51035;DHT22;37062;52.546;13.230;2023-05-07T05:03:39;10.00;99.90
51035;DHT22;37062;52.546;13.230;2023-05-07T05:06:09;10.00;99.90
51035;DHT22;37062;52.546;13.230;2023-05-07T05:08:38;10.10;99.90
51035;DHT22;37062;52.546;13.230;2023-05-07T05:11:06;10.20;99.90
51035;DHT22;37062;52.546;13.230;2023-05-07T05:13:35;10.20;99.90
51035;DHT22;37062;52.546;13.230;2023-05-07T05:16:10;10.20;99.90
51035;DHT22;37062;52.546;13.230;2023-05-07T05:18:42;10.30;99.90
51035;DHT22;37062;52.546;13.230;2023-05-07T05:21:14;10.30;99.90
51035;DHT22;37062;52.546;13.230;2023-05-07T05:23:45;10.40;99.90
51035;DHT22;37062;52.546;13.230;2023-05-07T05:26:18;10.50;99.90
51035;DHT22;37062;52.546;13.230;2023-05-07T05:28:48;10.70;99.90
51035;DHT22;37062;52.546;13.230;2023-05-07T05:31:19;10.70;99.90
51035;DHT22;37062;52.546;13.230;2023-05-07T05:33:49;10.60;99.90
51035;DHT22;37062;52.546;13.230;2023-05-07T05:36:19;10.70;99.90
51035;DHT22;37062;52.546;13.230;2023-05-07T05:38:49;10.80;99.90
51035;DHT22;37062;52.546;13.230;2023-05-07T05:41:18;10.80;99.90
51035;DHT22;37062;52.546;13.230;2023-05-07T05:43:46;10.70;99.90
51035;DHT22;37062;52.546;13.230;2023-05-07T05:46:14;10.70;99.90
51035;DHT22;37062;52.546;13.230;2023-05-07T05:48:43;10.70;99.90
51035;DHT22;37062;52.546;13.230;2023-05-07T05:51:14;10.60;99.90
51035;DHT22;37062;52.546;13.230;2023-05-07T05:53:44;10.60;99.90
51035;DHT22;37062;52.546;13.230;2023-05-07T05:56:12;10.70;99.90
51035;DHT22;37062;52.546;13.230;2023-05-07T05:58:41;10.70;99.90
51035;DHT22;37062;52.546;13.230;2023-05-07T06:01:09;10.80;99.90
51035;DHT22;37062;52.546;13.230;2023-05-07T06:03:39;11.00;99.90
51035;DHT22;37062;52.546;13.230;2023-05-07T06:06:12;11.30;99.90
51035;DHT22;37062;52.546;13.230;2023-05-07T06:08:43;11.30;99.90
51035;DHT22;37062;52.546;13.230;2023-05-07T06:11:16;11.20;99.90
51035;DHT22;37062;52.546;13.230;2023-05-07T06:13:46;11.10;99.90
51035;DHT22;37062;52.546;13.230;2023-05-07T06:16:15;11.30;99.90
51035;DHT22;37062;52.546;13.230;2023-05-07T06:18:44;11.30;99.90
51035;DHT22;37062;52.546;13.230;2023-05-07T06:21:14;11.50;99.90
51035;DHT22;37062;52.546;13.230;2023-05-07T06:23:45;11.90;99.90
51035;DHT22;37062;52.546;13.230;2023-05-07T06:26:13;12.10;99.90
51035;DHT22;37062;52.546;13.230;2023-05-07T06:28:45;12.30;99.90
51035;DHT22;37062;52.546;13.230;2023-05-07T06:31:16;12.40;99.90
51035;DHT22;37062;52.546;13.230;2023-05-07T06:34:01;12.90;99.90
51035;DHT22;37062;52.546;13.230;2023-05-07T06:36:36;13.00;99.90
51035;DHT22;37062;52.546;13.230;2023-05-07T06:39:24;13.10;99.90
51035;DHT22;37062;52.546;13.230;2023-05-07T06:41:52;13.10;99.90
51035;DHT22;37062;52.546;13.230;2023-05-07T06:44:25;12.90;99.90
51035;DHT22;37062;52.546;13.230;2023-05-07T06:47:04;12.70;99.90
51035;DHT22;37062;52.546;13.230;2023-05-07T06:49:33;12.60;99.90
51035;DHT22;37062;52.546;13.230;2023-05-07T06:52:02;12.70;99.90
51035;DHT22;37062;52.546;13.230;2023-05-07T06:54:32;12.40;99.90
51035;DHT22;37062;52.546;13.230;2023-05-07T06:57:00;12.20;99.90
51035;DHT22;37062;52.546;13.230;2023-05-07T06:59:30;12.40;99.90
51035;DHT22;37062;52.546;13.230;2023-05-07T07:01:59;12.50;99.90
51035;DHT22;37062;52.546;13.230;2023-05-07T07:04:27;12.60;99.90
51035;DHT22;37062;52.546;13.230;2023-05-07T07:07:03;12.70;99.90
51035;DHT22;37062;52.546;13.230;2023-05-07T07:09:33;12.80;99.90
51035;DHT22;37062;52.546;13.230;2023-05-07T07:12:03;12.80;99.90
51035;DHT22;37062;52.546;13.230;2023-05-07T07:14:32;12.80;99.90
51035;DHT22;37062;52.546;13.230;2023-05-07T07:17:01;13.00;99.90
51035;DHT22;37062;52.546;13.230;2023-05-07T07:19:29;13.60;99.90
51035;DHT22;37062;52.546;13.230;2023-05-07T07:21:58;14.10;99.90
51035;DHT22;37062;52.546;13.230;2023-05-07T07:24:27;14.50;99.90
51035;DHT22;37062;52.546;13.230;2023-05-07T07:27:02;14.80;99.90
51035;DHT22;37062;52.546;13.230;2023-05-07T07:29:33;15.20;99.90
51035;DHT22;37062;52.546;13.230;2023-05-07T07:32:02;15.40;99.90
51035;DHT22;37062;52.546;13.230;2023-05-07T07:34:32;15.30;99.90
51035;DHT22;37062;52.546;13.230;2023-05-07T07:37:01;15.10;99.90
51035;DHT22;37062;52.546;13.230;2023-05-07T07:39:34;15.10;99.90
51035;DHT22;37062;52.546;13.230;2023-05-07T07:42:09;15.20;99.90
51035;DHT22;37062;52.546;13.230;2023-05-07T07:44:38;15.30;99.90
51035;DHT22;37062;52.546;13.230;2023-05-07T07:47:11;15.50;99.90
51035;DHT22;37062;52.546;13.230;2023-05-07T07:49:41;15.40;99.90
51035;DHT22;37062;52.546;13.230;2023-05-07T07:52:10;15.30;99.90
51035;DHT22;37062;52.546;13.230;2023-05-07T07:54:41;15.40;99.90
51035;DHT22;37062;52.546;13.230;2023-05-07T07:57:11;15.50;99.90
51035;DHT22;37062;52.546;13.230;2023-05-07T07:59:39;15.90;99.90
51035;DHT22;37062;52.546;13.230;2023-05-07T08:02:11;16.20;99.90
51035;DHT22;37062;52.546;13.230;2023-05-07T08:04:40;16.70;99.90
51035;DHT22;37062;52.546;13.230;2023-05-07T08:07:11;17.50;99.90
51035;DHT22;37062;52.546;13.230;2023-05-07T08:09:42;18.00;99.90
51035;DHT22;37062;52.546;13.230;2023-05-07T08:12:13;18.40;99.90
51035;DHT22;37062;52.546;13.230;2023-05-07T08:14:42;18.60;99.90
51035;DHT22;37062;52.546;13.230;2023-05-07T08:17:10;18.70;99.90
51035;DHT22;37062;52.546;13.230;2023-05-07T08:19:40;18.90;99.90
51035;DHT22;37062;52.546;13.230;2023-05-07T08:22:11;19.20;99.90
51035;DHT22;37062;52.546;13.230;2023-05-07T08:24:40;18.90;99.90
51035;DHT22;37062;52.546;13.230;2023-05-07T08:27:08;18.40;99.90
51035;DHT22;37062;52.546;13.230;2023-05-07T08:29:41;18.70;99.90
51035;DHT22;37062;52.546;13.230;2023-05-07T08:32:09;19.00;99.90
51035;DHT22;37062;52.546;13.230;2023-05-07T08:34:37;19.20;99.90
51035;DHT22;37062;52.546;13.230;2023-05-07T08:37:06;19.50;99.90
51035;DHT22;37062;52.546;13.230;2023-05-07T08:39:35;19.60;99.90
51035;DHT22;37062;52.546;13.230;2023-05-07T08:42:09;18.80;99.90
51035;DHT22;37062;52.546;13.230;2023-05-07T08:44:41;17.70;99.90
51035;DHT22;37062;52.546;13.230;2023-05-07T08:47:15;18.00;99.90
51035;DHT22;37062;52.546;13.230;2023-05-07T08:49:44;18.10;99.90
51035;DHT22;37062;52.546;13.230;2023-05-07T08:52:13;17.70;99.90
51035;DHT22;37062;52.546;13.230;2023-05-07T08:54:45;17.60;99.90
51035;DHT22;37062;52.546;13.230;2023-05-07T08:57:14;18.30;99.90
51035;DHT22;37062;52.546;13.230;2023-05-07T08:59:44;18.30;99.90
51035;DHT22;37062;52.546;13.230;2023-05-07T09:02:14;18.40;99.90
51035;DHT22;37062;52.546;13.230;2023-05-07T09:04:43;18.50;99.90
51035;DHT22;37062;52.546;13.230;2023-05-07T09:07:11;18.30;99.90
51035;DHT22;37062;52.546;13.230;2023-05-07T09:09:44;18.00;99.90
51035;DHT22;37062;52.546;13.230;2023-05-07T09:12:15;18.30;99.90
51035;DHT22;37062;52.546;13.230;2023-05-07T09:14:45;18.60;99.90
51035;DHT22;37062;52.546;13.230;2023-05-07T09:17:15;18.50;99.90
51035;DHT22;37062;52.546;13.230;2023-05-07T09:19:44;18.40;99.90
51035;DHT22;37062;52.546;13.230;2023-05-07T09:22:14;18.60;99.90
51035;DHT22;37062;52.546;13.230;2023-05-07T09:24:52;18.30;99.90
51035;DHT22;37062;52.546;13.230;2023-05-07T09:27:25;18.10;99.90
51035;DHT22;37062;52.546;13.230;2023-05-07T09:29:56;18.10;99.90
51035;DHT22;37062;52.546;13.230;2023-05-07T09:32:25;17.70;99.90
51035;DHT22;37062;52.546;13.230;2023-05-07T09:34:54;17.10;99.90
51035;DHT22;37062;52.546;13.230;2023-05-07T09:37:26;16.90;99.90
51035;DHT22;37062;52.546;13.230;2023-05-07T09:39:54;16.80;99.90
51035;DHT22;37062;52.546;13.230;2023-05-07T09:42:24;17.10;99.90
51035;DHT22;37062;52.546;13.230;2023-05-07T09:44:59;17.20;99.90
51035;DHT22;37062;52.546;13.230;2023-05-07T09:47:36;17.40;99.90
51035;DHT22;37062;52.546;13.230;2023-05-07T09:50:08;17.70;99.90
51035;DHT22;37062;52.546;13.230;2023-05-07T09:52:40;17.80;99.90
51035;DHT22;37062;52.546;13.230;2023-05-07T09:55:10;18.00;99.90
51035;DHT22;37062;52.546;13.230;2023-05-07T09:57:40;17.80;99.90
51035;DHT22;37062;52.546;13.230;2023-05-07T10:00:15;17.50;99.90
51035;DHT22;37062;52.546;13.230;2023-05-07T10:02:47;17.50;99.90
51035;DHT22;37062;52.546;13.230;2023-05-07T10:05:19;17.50;99.90
51035;DHT22;37062;52.546;13.230;2023-05-07T10:07:49;17.20;99.90
51035;DHT22;37062;52.546;13.230;2023-05-07T10:10:21;17.10;99.90
51035;DHT22;37062;52.546;13.230;2023-05-07T10:12:50;17.00;99.90
51035;DHT22;37062;52.546;13.230;2023-05-07T10:15:29;16.90;99.90
51035;DHT22;37062;52.546;13.230;2023-05-07T10:17:59;16.60;99.90
51035;DHT22;37062;52.546;13.230;2023-05-07T10:20:29;16.30;99.90
51035;DHT22;37062;52.546;13.230;2023-05-07T10:22:58;16.20;99.90
51035;DHT22;37062;52.546;13.230;2023-05-07T10:25:35;16.20;99.90
51035;DHT22;37062;52.546;13.230;2023-05-07T10:28:12;16.20;99.90
51035;DHT22;37062;52.546;13.230;2023-05-07T10:30:55;16.30;99.90
51035;DHT22;37062;52.546;13.230;2023-05-07T10:33:34;16.60;99.90
51035;DHT22;37062;52.546;13.230;2023-05-07T10:36:05;16.60;99.90
51035;DHT22;37062;52.546;13.230;2023-05-07T10:38:35;16.70;99.90
51035;DHT22;37062;52.546;13.230;2023-05-07T10:41:04;16.60;99.90
51035;DHT22;37062;52.546;13.230;2023-05-07T10:43:39;16.30;99.90
51035;DHT22;37062;52.546;13.230;2023-05-07T10:46:14;16.50;99.90
51035;DHT22;37062;52.546;13.230;2023-05-07T10:49:09;16.60;99.90
51035;DHT22;37062;52.546;13.230;2023-05-07T10:52:14;16.80;99.90
51035;DHT22;37062;52.546;13.230;2023-05-07T10:55:20;16.70;99.90
51035;DHT22;37062;52.546;13.230;2023-05-07T10:58:24;16.20;99.90
51035;DHT22;37062;52.546;13.230;2023-05-07T11:01:52;16.40;99.90
51035;DHT22;37062;52.546;13.230;2023-05-07T11:04:30;17.00;99.90
51035;DHT22;37062;52.546;13.230;2023-05-07T11:07:32;17.20;99.90
51035;DHT22;37062;52.546;13.230;2023-05-07T11:10:06;17.30;99.90
51035;DHT22;37062;52.546;13.230;2023-05-07T11:12:54;17.40;99.90
51035;DHT22;37062;52.546;13.230;2023-05-07T11:15:41;17.10;99.90
51035;DHT22;37062;52.546;13.230;2023-05-07T11:18:48;16.90;99.90
51035;DHT22;37062;52.546;13.230;2023-05-07T11:21:33;16.90;99.90
51035;DHT22;37062;52.546;13.230;2023-05-07T11:24:10;16.90;99.90
51035;DHT22;37062;52.546;13.230;2023-05-07T11:26:52;16.90;99.90
51035;DHT22;37062;52.546;13.230;2023-05-07T11:29:23;16.90;99.90
51035;DHT22;37062;52.546;13.230;2023-05-07T11:31:56;17.00;99.90
51035;DHT22;37062;52.546;13.230;2023-05-07T11:34:33;17.10;99.90
51035;DHT22;37062;52.546;13.230;2023-05-07T11:37:02;17.10;99.90
51035;DHT22;37062;52.546;13.230;2023-05-07T11:39:41;16.80;99.90
51035;DHT22;37062;52.546;13.230;2023-05-07T11:42:27;16.80;99.90
51035;DHT22;37062;52.546;13.230;2023-05-07T11:44:56;16.80;99.90
51035;DHT22;37062;52.546;13.230;2023-05-07T11:47:24;16.60;99.90
51035;DHT22;37062;52.546;13.230;2023-05-07T11:49:54;16.80;99.90
51035;DHT22;37062;52.546;13.230;2023-05-07T11:52:24;17.00;99.90
51035;DHT22;37062;52.546;13.230;2023-05-07T11:54:53;16.90;99.90
51035;DHT22;37062;52.546;13.230;2023-05-07T11:57:23;16.70;99.90
51035;DHT22;37062;52.546;13.230;2023-05-07T11:59:53;16.50;99.90
51035;DHT22;37062;52.546;13.230;2023-05-07T12:02:21;16.40;99.90
51035;DHT22;37062;52.546;13.230;2023-05-07T12:04:53;16.50;99.90
51035;DHT22;37062;52.546;13.230;2023-05-07T12:07:24;16.60;99.90
51035;DHT22;37062;52.546;13.230;2023-05-07T12:09:53;16.70;99.90
51035;DHT22;37062;52.546;13.230;2023-05-07T12:12:21;16.60;99.90
51035;DHT22;37062;52.546;13.230;2023-05-07T12:14:49;16.60;99.90
51035;DHT22;37062;52.546;13.230;2023-05-07T12:17:17;16.80;99.90
51035;DHT22;37062;52.546;13.230;2023-05-07T12:19:46;17.00;99.90
51035;DHT22;37062;52.546;13.230;2023-05-07T12:22:16;17.20;99.90
51035;DHT22;37062;52.546;13.230;2023-05-07T12:24:45;17.20;99.90
51035;DHT22;37062;52.546;13.230;2023-05-07T12:27:14;17.00;99.90
51035;DHT22;37062;52.546;13.230;2023-05-07T12:29:44;16.70;99.90
51035;DHT22;37062;52.546;13.230;2023-05-07T12:32:14;16.80;99.90
51035;DHT22;37062;52.546;13.230;2023-05-07T12:34:43;16.90;99.90
51035;DHT22;37062;52.546;13.230;2023-05-07T12:37:12;16.80;99.90
51035;DHT22;37062;52.546;13.230;2023-05-07T12:39:47;16.60;99.90
51035;DHT22;37062;52.546;13.230;2023-05-07T12:42:16;16.50;99.90
51035;DHT22;37062;52.546;13.230;2023-05-07T12:44:50;16.50;99.90
51035;DHT22;37062;52.546;13.230;2023-05-07T12:47:19;16.50;99.90
51035;DHT22;37062;52.546;13.230;2023-05-07T12:49:48;16.50;99.90
51035;DHT22;37062;52.546;13.230;2023-05-07T12:52:16;16.80;99.90
51035;DHT22;37062;52.546;13.230;2023-05-07T12:54:49;16.90;99.90
51035;DHT22;37062;52.546;13.230;2023-05-07T12:57:19;16.90;99.90
51035;DHT22;37062;52.546;13.230;2023-05-07T12:59:48;16.70;99.90
51035;DHT22;37062;52.546;13.230;2023-05-07T13:02:16;16.70;99.90
51035;DHT22;37062;52.546;13.230;2023-05-07T13:04:44;16.80;99.90
51035;DHT22;37062;52.546;13.230;2023-05-07T13:07:12;16.80;99.90
51035;DHT22;37062;52.546;13.230;2023-05-07T13:09:40;16.60;99.90
51035;DHT22;37062;52.546;13.230;2023-05-07T13:12:10;16.60;99.90
51035;DHT22;37062;52.546;13.230;2023-05-07T13:14:38;16.60;99.90
51035;DHT22;37062;52.546;13.230;2023-05-07T13:17:06;16.60;99.90
51035;DHT22;37062;52.546;13.230;2023-05-07T13:19:35;16.70;99.90
51035;DHT22;37062;52.546;13.230;2023-05-07T13:22:04;16.80;99.90
51035;DHT22;37062;52.546;13.230;2023-05-07T13:24:33;16.80;99.90
51035;DHT22;37062;52.546;13.230;2023-05-07T13:27:01;17.00;99.90
51035;DHT22;37062;52.546;13.230;2023-05-07T13:29:31;17.10;99.90
51035;DHT22;37062;52.546;13.230;2023-05-07T13:31:59;17.10;99.90
51035;DHT22;37062;52.546;13.230;2023-05-07T13:34:28;17.20;99.90
51035;DHT22;37062;52.546;13.230;2023-05-07T13:36:56;17.30;99.90
51035;DHT22;37062;52.546;13.230;2023-05-07T13:39:25;17.40;99.90
51035;DHT22;37062;52.546;13.230;2023-05-07T13:41:53;17.30;99.90
51035;DHT22;37062;52.546;13.230;2023-05-07T13:44:23;17.40;99.90
51035;DHT22;37062;52.546;13.230;2023-05-07T13:46:53;17.20;99.90
51035;DHT22;37062;52.546;13.230;2023-05-07T13:49:22;17.20;99.90
51035;DHT22;37062;52.546;13.230;2023-05-07T13:51:50;17.50;99.90
51035;DHT22;37062;52.546;13.230;2023-05-07T13:54:18;17.70;99.90
51035;DHT22;37062;52.546;13.230;2023-05-07T13:56:47;18.00;99.90
51035;DHT22;37062;52.546;13.230;2023-05-07T13:59:16;18.10;99.90
51035;DHT22;37062;52.546;13.230;2023-05-07T14:01:44;18.20;99.90
51035;DHT22;37062;52.546;13.230;2023-05-07T14:04:15;18.10;99.90
51035;DHT22;37062;52.546;13.230;2023-05-07T14:06:43;18.20;99.90
51035;DHT22;37062;52.546;13.230;2023-05-07T14:09:11;18.20;99.90
51035;DHT22;37062;52.546;13.230;2023-05-07T14:11:40;17.90;99.90
51035;DHT22;37062;52.546;13.230;2023-05-07T14:14:09;18.00;99.90
51035;DHT22;37062;52.546;13.230;2023-05-07T14:16:38;17.90;99.90
51035;DHT22;37062;52.546;13.230;2023-05-07T14:19:06;17.90;99.90
51035;DHT22;37062;52.546;13.230;2023-05-07T14:21:36;18.00;99.90
51035;DHT22;37062;52.546;13.230;2023-05-07T14:24:05;18.10;99.90
51035;DHT22;37062;52.546;13.230;2023-05-07T14:26:34;18.10;99.90
51035;DHT22;37062;52.546;13.230;2023-05-07T14:29:02;18.00;99.90
51035;DHT22;37062;52.546;13.230;2023-05-07T14:31:30;18.00;99.90
51035;DHT22;37062;52.546;13.230;2023-05-07T14:34:00;18.00;99.90
51035;DHT22;37062;52.546;13.230;2023-05-07T14:36:29;17.90;99.90
51035;DHT22;37062;52.546;13.230;2023-05-07T14:38:59;17.70;99.90
51035;DHT22;37062;52.546;13.230;2023-05-07T14:41:29;17.80;99.90
51035;DHT22;37062;52.546;13.230;2023-05-07T14:43:58;17.80;99.90
51035;DHT22;37062;52.546;13.230;2023-05-07T14:46:26;17.70;99.90
51035;DHT22;37062;52.546;13.230;2023-05-07T14:48:55;17.50;99.90
51035;DHT22;37062;52.546;13.230;2023-05-07T14:51:24;17.30;99.90
51035;DHT22;37062;52.546;13.230;2023-05-07T14:53:52;17.30;99.90
51035;DHT22;37062;52.546;13.230;2023-05-07T14:56:22;17.30;99.90
51035;DHT22;37062;52.546;13.230;2023-05-07T14:58:50;17.40;99.90
51035;DHT22;37062;52.546;13.230;2023-05-07T15:01:20;17.50;99.90
51035;DHT22;37062;52.546;13.230;2023-05-07T15:03:48;17.30;99.90
51035;DHT22;37062;52.546;13.230;2023-05-07T15:06:17;17.30;99.90
51035;DHT22;37062;52.546;13.230;2023-05-07T15:08:45;17.30;99.90
51035;DHT22;37062;52.546;13.230;2023-05-07T15:11:14;17.20;99.90
51035;DHT22;37062;52.546;13.230;2023-05-07T15:13:43;17.10;99.90
51035;DHT22;37062;52.546;13.230;2023-05-07T15:16:11;17.20;99.90
51035;DHT22;37062;52.546;13.230;2023-05-07T15:18:40;17.30;99.90
51035;DHT22;37062;52.546;13.230;2023-05-07T15:21:08;17.30;99.90
51035;DHT22;37062;52.546;13.230;2023-05-07T15:23:37;17.20;99.90
51035;DHT22;37062;52.546;13.230;2023-05-07T15:26:05;17.20;99.90
51035;DHT22;37062;52.546;13.230;2023-05-07T15:28:34;17.10;99.90
51035;DHT22;37062;52.546;13.230;2023-05-07T15:31:04;17.10;99.90
51035;DHT22;37062;52.546;13.230;2023-05-07T15:33:33;17.20;99.90
51035;DHT22;37062;52.546;13.230;2023-05-07T15:36:02;17.30;99.90
51035;DHT22;37062;52.546;13.230;2023-05-07T15:38:30;17.40;99.90